Main page
METAR-TAF:

METAR-TAF

Airports :

Angoulême – Cognac International Airport

Angoulême, France

latitude: 45-43-46N, longitude: 00-13-08E, elevation: 132 m

Current weather observation

The report was made 19 minutes ago, at 14:30 UTC
Wind 7 kt from the South/Southeast, varying between East and South
Temperature 16°C
Humidity 39%
Pressure 1027 hPa
Visibility 10 km or more
no clouds below 1500 m and no cumulonimbus

METAR: LFBU 021430Z AUTO 15007KT 100V190 CAVOK 16/02 Q1027 NOSIG

Time: 15:49 (14:49 UTC)

Forecast

The report was made 3 hours and 49 minutes ago, at 11:00 UTC
Forecast valid from 02 at 12 UTC to 03 at 12 UTC
Wind 10 kt from the South/Southeast
Visibility 10 km or more
no clouds below 1500 m and no cumulonimbus
Becoming
from 02 at 17 UTC to 02 at 19 UTC
Wind 3 kt from variable directions
Becoming
from 03 at 00 UTC to 03 at 02 UTC
Wind 10 kt from the South/Southeast

TAF: LFBU 021100Z 0212/0312 16010KT CAVOK BECMG 0217/0219 VRB03KT BECMG 0300/0302 15010KT

Weather observations and forecasts of more than 4000 airports (METAR and TAF reports).

The available stations are represented by yellow and red dots on the map.

Hover mouse over dot to see the name of the station.

Then click to see weather observations and forecasts.

To change the map : click on the green buttons with a black cross to zoom in, on the green button with a dash to zoom out, or on the green arrows for adjacent maps.


METAR-TAF: